KCTY/CTY METAR and TAF weather

Enter ICAO airport designator
Station Type Date Time Source
KCTY METAR 2019/12/13 01:35 UTC NOAA

KCTY 130135Z AUTO 06009KT 7SM OVC011 16/14 A3022 RMK AO2 T01640143


Station Type Date Time Source
KCTY Decoded METAR 2019/12/13 01:35 UTC NOAA

CROSS CITY AIRPORT, FL, United States (KCTY) 29-38N 083-06W 12M
Dec 12, 2019 - 08:35 PM EST / 2019.12.13 0135 UTC
Wind: from the ENE (060 degrees) at 10 MPH (9 KT):0
Visibility: 7 mile(s):0
Sky conditions: overcast
Temperature: 61.5 F (16.4 C)
Dew Point: 57.7 F (14.3 C)
Relative Humidity: 87%
Pressure (altimeter): 30.22 in. Hg (1023 hPa)
ob: KCTY 130135Z AUTO 06009KT 7SM OVC011 16/14 A3022 RMK AO2 T01640143
cycle: 1

Station Type Date Time Source
KCTY TAF UTC NOAA

Error!

Example: see airport list